Time;durP1;ratioP1;P1;durP2;ratioP2;P2;SDS_P1;SDS_P2;PMS_P1;PMS_P2;Temp;Humidity;BMP_temperature;BMP_pressure;BME280_temperature;BME280_humidity;BME280_pressure;Samples;Min_cycle;Max_cycle;Signal;HPM_P1;HPM_P2
2022/04/13 00:00:13;;;;;;;7.40;4.35;;;12.30;79.00;;;;;;5052155;28;20029;-77
2022/04/13 00:02:39;;;;;;;7.97;4.00;;;12.30;79.00;;;;;;5052831;28;20029;-77
2022/04/13 00:05:06;;;;;;;7.90;4.47;;;12.30;79.00;;;;;;5052471;28;20021;-77
2022/04/13 00:07:32;;;;;;;9.35;4.50;;;12.30;79.00;;;;;;5053513;28;20048;-76
2022/04/13 00:09:57;;;;;;;6.47;3.85;;;12.30;79.00;;;;;;5037745;28;20028;-76
2022/04/13 00:12:23;;;;;;;6.50;4.13;;;12.30;79.00;;;;;;5053816;28;20029;-77
2022/04/13 00:14:49;;;;;;;7.35;4.10;;;12.30;79.00;;;;;;5052211;28;20036;-77
2022/04/13 00:17:15;;;;;;;7.32;4.20;;;12.30;79.00;;;;;;5052050;28;20037;-76
2022/04/13 00:19:40;;;;;;;6.82;3.83;;;12.30;79.00;;;;;;5052445;28;20024;-77
2022/04/13 00:22:06;;;;;;;8.38;3.80;;;12.30;79.00;;;;;;5053601;28;20048;-76
2022/04/13 00:24:31;;;;;;;7.50;3.92;;;12.30;79.00;;;;;;5052171;28;20127;-76
2022/04/13 00:26:57;;;;;;;7.78;3.70;;;12.30;79.10;;;;;;5052146;28;20021;-77
2022/04/13 00:29:24;;;;;;;6.38;3.78;;;12.30;79.10;;;;;;5053172;28;20029;-76
2022/04/13 00:31:51;;;;;;;7.25;3.92;;;12.30;79.10;;;;;;5053387;28;20116;-77
2022/04/13 00:34:17;;;;;;;7.45;3.85;;;12.30;79.10;;;;;;5065577;23;20397;-78
2022/04/13 00:36:42;;;;;;;6.72;3.75;;;12.30;79.10;;;;;;5040180;28;20064;-79
2022/04/13 00:39:08;;;;;;;8.02;3.88;;;12.30;79.10;;;;;;5039773;28;20033;-79
2022/04/13 00:41:33;;;;;;;7.80;3.83;;;12.30;79.10;;;;;;5040840;28;20053;-78
2022/04/13 00:44:08;;;;;;;6.63;3.55;;;12.30;79.10;;;;;;5045464;28;20025;-79
2022/04/13 00:46:34;;;;;;;6.60;3.65;;;12.30;79.10;;;;;;5060210;28;20048;-79
2022/04/13 00:49:01;;;;;;;6.28;3.70;;;12.30;79.20;;;;;;5058373;28;20021;-79
2022/04/13 00:51:27;;;;;;;5.95;3.40;;;12.30;79.10;;;;;;5058198;28;20029;-79
2022/04/13 00:53:55;;;;;;;6.95;3.97;;;12.30;79.10;;;;;;5057516;28;20029;-78
2022/04/13 00:56:24;;;;;;;6.82;3.63;;;12.30;79.10;;;;;;5057672;28;20025;-78
2022/04/13 00:58:53;;;;;;;6.90;3.65;;;12.30;79.20;;;;;;5057232;28;20028;-78
2022/04/13 01:01:20;;;;;;;6.47;3.42;;;12.30;79.20;;;;;;5056908;28;20550;-78
2022/04/13 01:03:50;;;;;;;6.72;3.42;;;12.30;79.20;;;;;;5054643;28;20438;-77
2022/04/13 01:06:16;;;;;;;6.68;3.70;;;12.30;79.20;;;;;;5052475;28;20013;-76
2022/04/13 01:08:43;;;;;;;7.03;3.30;;;12.30;79.20;;;;;;5051727;28;20013;-76
2022/04/13 01:11:10;;;;;;;7.20;3.50;;;12.30;79.20;;;;;;5051172;28;20036;-76
2022/04/13 01:13:38;;;;;;;7.20;3.40;;;12.30;79.20;;;;;;5035523;28;20076;-76
2022/04/13 01:16:08;;;;;;;7.22;3.83;;;12.30;79.20;;;;;;5051944;28;20024;-76
2022/04/13 01:18:34;;;;;;;6.95;3.65;;;12.30;79.20;;;;;;5052814;28;20031;-77
2022/04/13 01:21:00;;;;;;;5.75;3.28;;;12.30;79.20;;;;;;5051934;28;20025;-77
2022/04/13 01:23:26;;;;;;;5.97;3.38;;;12.30;79.20;;;;;;5054718;28;20391;-78
2022/04/13 01:25:54;;;;;;;6.65;3.72;;;12.30;79.20;;;;;;5054955;28;20028;-78
2022/04/13 01:28:20;;;;;;;5.88;3.40;;;12.30;79.20;;;;;;5056775;28;20021;-78
2022/04/13 01:30:46;;;;;;;5.90;3.60;;;12.30;79.20;;;;;;5055047;28;20040;-78
2022/04/13 01:33:11;;;;;;;6.18;3.10;;;12.30;79.20;;;;;;5054282;28;20025;-78
2022/04/13 01:35:37;;;;;;;6.50;3.30;;;12.30;79.20;;;;;;5055527;28;20127;-78
2022/04/13 01:38:03;;;;;;;6.80;3.50;;;12.30;79.20;;;;;;5053968;28;20066;-78
2022/04/13 01:40:28;;;;;;;5.68;3.20;;;12.30;79.30;;;;;;5054175;28;20120;-78
2022/04/13 01:42:54;;;;;;;5.85;3.05;;;12.30;79.30;;;;;;5054202;28;20048;-78
2022/04/13 01:45:22;;;;;;;6.47;3.40;;;12.30;79.30;;;;;;5052716;28;20024;-76
2022/04/13 01:47:49;;;;;;;6.07;3.45;;;12.30;79.30;;;;;;5050735;28;20021;-77
2022/04/13 01:50:19;;;;;;;5.32;3.10;;;12.30;79.30;;;;;;5052708;28;20044;-77
2022/04/13 01:52:47;;;;;;;5.82;3.28;;;12.30;79.30;;;;;;5052324;28;20021;-76
2022/04/13 01:55:13;;;;;;;6.28;3.50;;;12.30;79.40;;;;;;5051355;28;20395;-77
2022/04/13 01:57:40;;;;;;;6.22;3.20;;;12.20;79.30;;;;;;5051986;28;20397;-76
2022/04/13 02:00:09;;;;;;;6.30;3.20;;;12.30;79.30;;;;;;5051389;28;20021;-76
2022/04/13 02:02:34;;;;;;;6.70;3.53;;;12.30;79.30;;;;;;5047383;28;20014;-76
2022/04/13 02:05:00;;;;;;;5.72;3.22;;;12.30;79.30;;;;;;5044910;28;20487;-76
2022/04/13 02:07:27;;;;;;;5.18;3.10;;;12.30;79.40;;;;;;5037282;28;20121;-76
2022/04/13 02:09:54;;;;;;;5.10;3.10;;;12.30;79.40;;;;;;5052207;28;20025;-76
2022/04/13 02:12:20;;;;;;;5.38;3.17;;;12.30;79.40;;;;;;5051102;28;20029;-76
2022/04/13 02:14:45;;;;;;;5.22;3.00;;;12.30;79.40;;;;;;5050683;28;20092;-76
2022/04/13 02:17:14;;;;;;;5.40;2.72;;;12.30;79.30;;;;;;5052286;28;20062;-75
2022/04/13 02:19:40;;;;;;;5.90;3.15;;;12.30;79.40;;;;;;5050896;28;20032;-76
2022/04/13 02:22:07;;;;;;;4.63;2.90;;;12.30;79.40;;;;;;5050889;28;20017;-76
2022/04/13 02:24:34;;;;;;;5.43;2.85;;;12.30;79.40;;;;;;5051951;28;20151;-76
2022/04/13 02:27:00;;;;;;;5.63;3.03;;;12.30;79.50;;;;;;5051008;28;20553;-76
2022/04/13 02:29:26;;;;;;;7.35;3.20;;;12.30;79.40;;;;;;5051869;28;20033;-76
2022/04/13 02:31:51;;;;;;;5.45;2.88;;;12.30;79.50;;;;;;5050964;28;20491;-76
2022/04/13 02:34:18;;;;;;;5.60;2.60;;;12.30;79.50;;;;;;5050519;28;20033;-76
2022/04/13 02:36:43;;;;;;;4.90;2.80;;;12.30;79.50;;;;;;5050454;28;20033;-76
2022/04/13 02:39:09;;;;;;;4.88;2.92;;;12.20;79.40;;;;;;5053531;28;20535;-76
2022/04/13 02:41:34;;;;;;;5.82;2.63;;;12.30;79.50;;;;;;5054934;28;20020;-76
2022/04/13 02:44:00;;;;;;;6.28;2.97;;;12.30;79.50;;;;;;5054629;28;20049;-76
2022/04/13 02:46:25;;;;;;;5.78;2.70;;;12.30;79.50;;;;;;5054672;28;20021;-76
2022/04/13 02:48:51;;;;;;;5.10;2.80;;;12.30;79.50;;;;;;5055671;28;20392;-76
2022/04/13 02:51:16;;;;;;;6.03;2.88;;;12.30;79.50;;;;;;5054388;28;20081;-76
2022/04/13 02:53:42;;;;;;;5.00;3.00;;;12.30;79.50;;;;;;5054544;28;20021;-76
2022/04/13 02:56:07;;;;;;;5.35;3.17;;;12.30;79.50;;;;;;5055652;28;20060;-76
2022/04/13 02:58:33;;;;;;;6.07;3.03;;;12.30;79.60;;;;;;5054216;28;20034;-75
2022/04/13 03:00:58;;;;;;;5.80;2.67;;;12.20;79.50;;;;;;5055795;28;20033;-76
2022/04/13 03:03:24;;;;;;;4.97;2.80;;;12.30;79.50;;;;;;5054234;28;20036;-75
2022/04/13 03:05:50;;;;;;;4.72;2.70;;;12.30;79.60;;;;;;5055463;28;20017;-76
2022/04/13 03:08:15;;;;;;;5.32;2.95;;;12.30;79.60;;;;;;5055166;28;20025;-76
2022/04/13 03:10:43;;;;;;;5.68;2.83;;;12.30;79.60;;;;;;5054351;28;20029;-76
2022/04/13 03:13:10;;;;;;;5.35;2.80;;;12.30;79.60;;;;;;5055388;28;20070;-76
2022/04/13 03:15:35;;;;;;;6.35;2.92;;;12.30;79.70;;;;;;5054010;28;20032;-76
2022/04/13 03:18:01;;;;;;;4.80;2.70;;;12.30;79.60;;;;;;5053839;28;20029;-77
2022/04/13 03:20:27;;;;;;;3.90;2.45;;;12.20;79.90;;;;;;5053400;28;20073;-78
2022/04/13 03:22:52;;;;;;;5.60;3.00;;;12.20;79.60;;;;;;5056350;28;20021;-78
2022/04/13 03:25:18;;;;;;;11.55;3.10;;;12.30;79.70;;;;;;5055942;28;20065;-78
2022/04/13 03:27:44;;;;;;;10.10;3.15;;;12.30;79.70;;;;;;5055684;28;20037;-78
2022/04/13 03:30:13;;;;;;;14.45;3.33;;;12.20;79.70;;;;;;5056519;28;20396;-77
2022/04/13 03:32:39;;;;;;;13.15;3.13;;;12.30;79.70;;;;;;5055878;28;20029;-77
2022/04/13 03:35:06;;;;;;;15.13;3.30;;;12.20;79.70;;;;;;5056857;28;20040;-78
2022/04/13 03:37:31;;;;;;;16.75;3.45;;;12.30;79.70;;;;;;5054932;28;20025;-77
2022/04/13 03:39:57;;;;;;;14.30;3.30;;;12.30;79.70;;;;;;5055312;28;20070;-76
2022/04/13 03:42:22;;;;;;;16.38;2.75;;;12.20;79.70;;;;;;5053436;28;20044;-76
2022/04/13 03:44:47;;;;;;;12.82;2.92;;;12.20;79.70;;;;;;5053615;28;20029;-76
2022/04/13 03:47:13;;;;;;;12.07;3.30;;;12.30;79.80;;;;;;5054784;28;20462;-75
2022/04/13 03:49:38;;;;;;;10.40;2.63;;;12.30;79.80;;;;;;5054053;28;20025;-76
2022/04/13 03:52:04;;;;;;;7.95;2.45;;;12.30;79.70;;;;;;5053248;28;20124;-76
2022/04/13 03:54:30;;;;;;;6.35;2.50;;;12.20;79.70;;;;;;5054198;28;20029;-76
2022/04/13 03:56:55;;;;;;;8.73;2.60;;;12.30;79.80;;;;;;5054623;28;20120;-76
2022/04/13 03:59:22;;;;;;;5.25;2.63;;;12.20;79.70;;;;;;5053114;28;20502;-76
2022/04/13 04:01:48;;;;;;;8.05;2.88;;;12.30;79.80;;;;;;5053401;28;20105;-76
2022/04/13 04:04:13;;;;;;;7.03;2.72;;;12.20;79.80;;;;;;5052340;28;20044;-76
2022/04/13 04:06:39;;;;;;;7.03;2.55;;;12.20;79.80;;;;;;5053103;28;20123;-76
2022/04/13 04:09:04;;;;;;;7.68;2.70;;;12.20;79.70;;;;;;5053782;28;20035;-76
2022/04/13 04:11:30;;;;;;;8.80;2.90;;;12.30;79.80;;;;;;5054401;28;20484;-77
2022/04/13 04:13:55;;;;;;;5.95;2.67;;;12.20;79.80;;;;;;5052932;28;20044;-76
2022/04/13 04:16:21;;;;;;;6.55;2.67;;;12.30;79.80;;;;;;5054170;28;20387;-76
2022/04/13 04:18:48;;;;;;;7.53;3.03;;;12.20;79.70;;;;;;5051692;28;20079;-76
2022/04/13 04:21:15;;;;;;;8.57;3.25;;;12.20;79.80;;;;;;5044435;28;20090;-76
2022/04/13 04:23:41;;;;;;;6.90;2.50;;;12.30;79.80;;;;;;5053968;28;20025;-76
2022/04/13 04:26:07;;;;;;;7.65;2.78;;;12.30;79.90;;;;;;5052858;28;20391;-76
2022/04/13 04:28:32;;;;;;;6.72;2.88;;;12.30;79.90;;;;;;5052494;28;20060;-76
2022/04/13 04:30:58;;;;;;;7.13;2.60;;;12.30;79.90;;;;;;5052242;28;20017;-78
2022/04/13 04:33:24;;;;;;;6.32;2.65;;;12.20;79.80;;;;;;5066568;28;20127;-75
2022/04/13 04:35:51;;;;;;;8.07;2.38;;;12.30;79.90;;;;;;5073828;28;20044;-76
2022/04/13 04:38:17;;;;;;;6.78;2.60;;;12.20;79.80;;;;;;5063092;28;20033;-75
2022/04/13 04:40:43;;;;;;;7.22;2.67;;;12.30;79.90;;;;;;5052009;28;20033;-76
2022/04/13 04:43:08;;;;;;;5.97;2.70;;;12.30;79.90;;;;;;5053753;28;20134;-76
2022/04/13 04:45:35;;;;;;;5.32;2.35;;;12.30;79.90;;;;;;5054180;28;20025;-77
2022/04/13 04:48:04;;;;;;;5.90;2.72;;;12.20;79.90;;;;;;5052842;28;20025;-76
2022/04/13 04:50:31;;;;;;;5.95;2.40;;;12.30;79.90;;;;;;5053190;28;20029;-78
2022/04/13 04:52:56;;;;;;;7.03;2.55;;;12.30;79.80;;;;;;5056839;28;20538;-77
2022/04/13 04:55:23;;;;;;;6.05;2.67;;;12.30;79.80;;;;;;5063992;28;20024;-78
2022/04/13 04:57:48;;;;;;;6.03;2.67;;;12.20;79.80;;;;;;5053010;28;20110;-76
2022/04/13 05:00:19;;;;;;;7.13;2.70;;;12.30;79.90;;;;;;5051036;28;20273;-75
2022/04/13 05:02:52;;;;;;;6.40;2.55;;;12.30;79.90;;;;;;5050983;28;20435;-80
2022/04/13 05:05:19;;;;;;;5.65;2.50;;;12.30;79.90;;;;;;5052340;28;20080;-79
2022/04/13 05:07:45;;;;;;;5.00;2.60;;;12.30;79.90;;;;;;5051403;28;20029;-79
2022/04/13 05:10:11;;;;;;;5.30;2.60;;;12.20;79.80;;;;;;5052279;28;20029;-78
2022/04/13 05:12:45;;;;;;;6.45;2.70;;;12.20;79.90;;;;;;5052262;28;20029;-79
2022/04/13 05:15:12;;;;;;;4.63;2.60;;;12.30;79.90;;;;;;5045751;28;20035;-80
2022/04/13 05:17:37;;;;;;;6.65;2.60;;;12.30;80.00;;;;;;5052080;28;20028;-79
2022/04/13 05:20:05;;;;;;;6.05;2.30;;;12.30;79.90;;;;;;5051767;28;20159;-78
2022/04/13 05:22:30;;;;;;;4.63;2.42;;;12.30;79.90;;;;;;5049153;28;20029;-79
2022/04/13 05:25:02;;;;;;;5.13;2.55;;;12.30;80.00;;;;;;5050484;28;20025;-79
2022/04/13 05:27:28;;;;;;;4.70;2.72;;;12.30;79.90;;;;;;5052715;28;20470;-78
2022/04/13 05:29:54;;;;;;;5.25;2.40;;;12.20;79.90;;;;;;5049461;28;20241;-78
2022/04/13 05:32:19;;;;;;;5.05;2.50;;;12.30;80.00;;;;;;5049833;28;20078;-76
2022/04/13 05:34:45;;;;;;;5.82;2.58;;;12.30;79.90;;;;;;5048871;28;20078;-77
2022/04/13 05:37:10;;;;;;;4.75;2.53;;;12.30;80.00;;;;;;5047201;28;20652;-75
2022/04/13 05:39:38;;;;;;;5.15;2.58;;;12.30;79.90;;;;;;5050181;28;20091;-76
2022/04/13 05:42:04;;;;;;;5.32;2.72;;;12.30;79.90;;;;;;5050490;28;20487;-78
2022/04/13 06:18:09;;;;;;;6.28;2.80;;;12.30;80.60;;;;;;5245290;23;20073;-79
2022/04/13 06:20:34;;;;;;;6.43;2.80;;;12.30;79.90;;;;;;5019798;28;20021;-80
2022/04/13 06:23:00;;;;;;;3.67;2.20;;;12.30;79.80;;;;;;5029661;28;20491;-80
2022/04/13 06:25:25;;;;;;;6.75;2.65;;;12.30;80.00;;;;;;5030235;28;20526;-79
2022/04/13 06:27:51;;;;;;;7.80;3.28;;;12.30;80.00;;;;;;5044148;28;20024;-81
2022/04/13 06:30:16;;;;;;;5.03;2.70;;;12.30;80.00;;;;;;5036750;28;20040;-80
2022/04/13 06:32:44;;;;;;;8.32;2.80;;;12.30;79.90;;;;;;5037482;28;20458;-81
2022/04/13 06:35:13;;;;;;;5.72;2.65;;;12.30;80.00;;;;;;5012029;28;20041;-80
2022/04/13 06:37:40;;;;;;;7.30;2.80;;;12.30;80.00;;;;;;5010582;28;20052;-80
2022/04/13 06:40:07;;;;;;;5.45;2.63;;;12.30;80.10;;;;;;5042340;28;20025;-81
2022/04/13 06:42:34;;;;;;;6.10;2.67;;;12.30;80.10;;;;;;5029137;28;20121;-79
2022/04/13 06:45:00;;;;;;;5.78;2.80;;;12.30;80.00;;;;;;5029675;28;20021;-81
2022/04/13 06:47:26;;;;;;;5.53;2.70;;;12.30;80.10;;;;;;5029197;28;20028;-78
2022/04/13 06:49:52;;;;;;;10.82;3.38;;;12.30;79.90;;;;;;5048065;28;20025;-81
2022/04/13 06:52:17;;;;;;;10.25;3.00;;;12.40;80.10;;;;;;5030290;28;20075;-78
2022/04/13 06:54:43;;;;;;;7.18;2.65;;;12.30;80.00;;;;;;5030570;28;20066;-80
2022/04/13 06:57:08;;;;;;;6.40;2.85;;;12.30;80.00;;;;;;5030240;28;20036;-79
2022/04/13 06:59:35;;;;;;;7.85;2.80;;;12.30;80.00;;;;;;5048047;28;20546;-80
2022/04/13 07:02:01;;;;;;;7.75;2.80;;;12.30;80.00;;;;;;5048253;28;20132;-78
2022/04/13 07:04:26;;;;;;;8.00;3.45;;;12.30;80.00;;;;;;5048018;28;20454;-80
2022/04/13 07:06:52;;;;;;;5.95;3.03;;;12.40;80.00;;;;;;5047806;28;20037;-78
2022/04/13 07:09:18;;;;;;;5.45;2.88;;;12.40;80.00;;;;;;5030411;28;20059;-81
2022/04/13 07:11:44;;;;;;;6.45;3.10;;;12.40;80.00;;;;;;5030006;28;20068;-78
2022/04/13 07:14:09;;;;;;;5.80;2.70;;;12.40;79.90;;;;;;5030035;28;20029;-82
2022/04/13 07:16:35;;;;;;;7.80;3.10;;;12.40;79.90;;;;;;5029871;28;20064;-81
2022/04/13 07:19:00;;;;;;;6.30;2.90;;;12.40;79.80;;;;;;5029870;28;20021;-80
2022/04/13 07:21:26;;;;;;;6.75;2.97;;;12.50;79.80;;;;;;5030514;28;20025;-80
2022/04/13 07:23:51;;;;;;;7.07;2.97;;;12.40;79.80;;;;;;5030424;28;20602;-79
2022/04/13 07:26:17;;;;;;;6.53;2.83;;;12.40;79.70;;;;;;5033323;28;20021;-81
2022/04/13 07:28:43;;;;;;;5.93;2.63;;;12.50;79.70;;;;;;5033933;28;20033;-79
2022/04/13 07:31:08;;;;;;;7.15;2.88;;;12.50;79.60;;;;;;5033804;28;20449;-81
2022/04/13 07:33:34;;;;;;;6.38;2.65;;;12.50;79.50;;;;;;5033202;28;20292;-78
2022/04/13 07:35:59;;;;;;;5.88;2.95;;;12.50;79.50;;;;;;5033346;28;20120;-81
2022/04/13 07:38:25;;;;;;;7.18;3.25;;;12.60;79.50;;;;;;5033338;28;20029;-82
2022/04/13 07:40:50;;;;;;;6.50;3.17;;;12.50;79.40;;;;;;5033369;28;20100;-81
2022/04/13 07:43:16;;;;;;;5.68;2.72;;;12.50;79.30;;;;;;5032777;28;20055;-81
2022/04/13 07:45:43;;;;;;;7.10;2.70;;;12.60;79.30;;;;;;5033073;28;20021;-81
2022/04/13 07:48:09;;;;;;;4.95;2.58;;;12.60;79.30;;;;;;5033474;28;20033;-81
2022/04/13 07:50:34;;;;;;;6.63;2.70;;;12.60;79.20;;;;;;5033973;28;20029;-80
2022/04/13 07:53:00;;;;;;;7.47;2.70;;;12.60;79.00;;;;;;5033372;28;20040;-81
2022/04/13 07:55:26;;;;;;;6.82;2.90;;;12.70;78.90;;;;;;5051217;28;20028;-82
2022/04/13 07:57:52;;;;;;;6.25;2.70;;;12.70;78.80;;;;;;5032909;28;20487;-81
2022/04/13 08:00:17;;;;;;;5.18;2.85;;;12.70;78.70;;;;;;5032879;28;20025;-78
2022/04/13 08:02:44;;;;;;;6.60;2.70;;;12.70;78.70;;;;;;5033497;28;20111;-80
2022/04/13 08:05:12;;;;;;;5.35;2.80;;;12.70;78.70;;;;;;5032908;28;20079;-78
2022/04/13 08:07:38;;;;;;;5.60;2.80;;;12.70;78.70;;;;;;5033014;28;20033;-82
2022/04/13 08:10:04;;;;;;;6.15;2.75;;;12.70;78.60;;;;;;5051311;28;20099;-80
2022/04/13 08:12:31;;;;;;;5.05;2.75;;;12.80;78.60;;;;;;5032705;28;20036;-79
2022/04/13 08:14:57;;;;;;;7.00;2.78;;;12.80;78.50;;;;;;5050430;28;20032;-81
2022/04/13 08:17:24;;;;;;;5.18;2.85;;;12.80;78.40;;;;;;5049796;28;20435;-78
2022/04/13 08:19:49;;;;;;;5.80;2.60;;;12.80;78.40;;;;;;5032925;28;20040;-81
2022/04/13 08:22:17;;;;;;;5.93;2.78;;;12.80;78.30;;;;;;5032395;28;20020;-80
2022/04/13 08:24:43;;;;;;;4.53;2.80;;;12.80;78.20;;;;;;5032896;28;20028;-80
2022/04/13 08:27:10;;;;;;;4.80;2.60;;;12.90;78.30;;;;;;5031890;28;20029;-79
2022/04/13 08:29:35;;;;;;;6.68;3.00;;;12.90;78.30;;;;;;5032837;28;20056;-80
2022/04/13 08:32:01;;;;;;;5.78;2.70;;;12.90;78.20;;;;;;5032223;28;20056;-79
2022/04/13 08:34:27;;;;;;;6.13;2.83;;;12.80;78.20;;;;;;5048397;28;20029;-81
2022/04/13 08:36:53;;;;;;;4.40;2.65;;;12.80;78.30;;;;;;5034777;28;20091;-78
2022/04/13 08:39:18;;;;;;;6.75;2.80;;;12.90;78.30;;;;;;5032464;28;20025;-80
2022/04/13 08:42:06;;;;;;;4.45;2.40;;;12.90;78.20;;;;;;5038333;28;20037;-78
2022/04/13 08:44:50;;;;;;;7.00;2.80;;;12.90;78.20;;;;;;5010816;28;20448;-82
2022/04/13 08:47:23;;;;;;;5.13;2.70;;;12.90;78.20;;;;;;5028295;28;20099;-81
2022/04/13 08:49:51;;;;;;;5.05;2.80;;;12.90;78.10;;;;;;5030339;28;20038;-81
2022/04/13 08:52:29;;;;;;;4.75;2.60;;;12.90;78.10;;;;;;5011695;28;20083;-80
2022/04/13 08:55:11;;;;;;;4.75;2.53;;;13.00;78.00;;;;;;5029521;28;20435;-80
2022/04/13 08:57:45;;;;;;;7.40;2.85;;;13.00;78.10;;;;;;5012103;28;20107;-80
2022/04/13 09:00:14;;;;;;;5.95;3.00;;;13.00;78.10;;;;;;5012557;28;20480;-80
2022/04/13 09:02:54;;;;;;;6.53;2.85;;;13.00;78.00;;;;;;5012570;28;20048;-82
2022/04/13 09:05:23;;;;;;;5.27;2.47;;;13.00;78.00;;;;;;5030097;28;20033;-81
2022/04/13 09:07:53;;;;;;;4.97;2.92;;;13.00;78.00;;;;;;5011744;28;20282;-78
2022/04/13 09:10:22;;;;;;;5.88;2.83;;;13.00;78.00;;;;;;5029823;28;20033;-78
2022/04/13 09:12:50;;;;;;;5.03;2.65;;;13.00;77.90;;;;;;5011915;28;20044;-80
2022/04/13 09:15:16;;;;;;;4.90;2.55;;;13.00;77.90;;;;;;5012078;28;20037;-82
2022/04/13 09:17:42;;;;;;;5.85;2.80;;;13.00;77.90;;;;;;5011614;28;20033;-78
2022/04/13 09:20:09;;;;;;;4.65;2.50;;;13.10;78.00;;;;;;5011436;28;20033;-82
2022/04/13 09:22:37;;;;;;;5.95;2.80;;;13.00;77.90;;;;;;5011892;28;20108;-80
2022/04/13 09:25:04;;;;;;;7.68;2.78;;;13.10;77.90;;;;;;5012421;28;20112;-81
2022/04/13 09:27:31;;;;;;;5.20;2.67;;;13.10;77.90;;;;;;5029113;28;20025;-80
2022/04/13 09:29:57;;;;;;;4.60;2.50;;;13.10;77.90;;;;;;5011935;28;20116;-77
2022/04/13 09:32:23;;;;;;;5.63;2.70;;;13.10;77.90;;;;;;5012135;28;20145;-80
2022/04/13 09:34:51;;;;;;;6.00;3.08;;;13.10;77.90;;;;;;5011197;28;20078;-79
2022/04/13 09:37:18;;;;;;;6.55;3.20;;;13.10;77.90;;;;;;5010867;28;20397;-81
2022/04/13 09:39:45;;;;;;;4.43;2.70;;;13.10;77.90;;;;;;5029272;28;20039;-82
2022/04/13 09:42:13;;;;;;;4.97;3.03;;;13.20;77.90;;;;;;5029013;28;20029;-79
2022/04/13 09:44:41;;;;;;;5.60;2.80;;;13.10;77.80;;;;;;5011895;28;20032;-81
2022/04/13 09:47:11;;;;;;;5.70;2.88;;;13.10;77.70;;;;;;5028236;28;20029;-81
2022/04/13 09:49:47;;;;;;;6.32;3.08;;;13.20;77.80;;;;;;5011829;28;20036;-80
2022/04/13 09:52:15;;;;;;;4.72;2.50;;;13.20;77.70;;;;;;5029631;28;20041;-79
2022/04/13 09:54:48;;;;;;;4.80;2.63;;;13.20;77.70;;;;;;5011682;28;20120;-81
2022/04/13 09:57:23;;;;;;;4.75;2.85;;;13.20;77.60;;;;;;5028420;28;20040;-81
2022/04/13 09:59:56;;;;;;;5.40;2.78;;;13.20;77.60;;;;;;5029287;28;20030;-81
2022/04/13 10:02:39;;;;;;;5.28;2.97;;;13.20;77.60;;;;;;5011095;28;20125;-80
2022/04/13 10:05:10;;;;;;;6.82;3.00;;;13.20;77.60;;;;;;5010921;28;20025;-80
2022/04/13 10:07:36;;;;;;;4.85;2.90;;;13.20;77.60;;;;;;5028942;28;20033;-80
2022/04/13 10:10:03;;;;;;;6.95;2.60;;;13.20;77.70;;;;;;5010882;28;20034;-81
2022/04/13 10:12:28;;;;;;;5.47;2.80;;;13.20;77.60;;;;;;5028670;28;20026;-78
2022/04/13 10:15:07;;;;;;;6.55;2.97;;;13.20;77.60;;;;;;5029005;28;20036;-80
2022/04/13 10:17:33;;;;;;;6.32;3.53;;;13.30;77.60;;;;;;5010731;28;20045;-81
2022/04/13 10:19:59;;;;;;;5.63;2.60;;;13.30;77.60;;;;;;5011413;28;20048;-81
2022/04/13 10:22:25;;;;;;;5.38;2.80;;;13.20;77.50;;;;;;5010652;28;20614;-79
2022/04/13 10:24:50;;;;;;;4.72;2.67;;;13.30;77.40;;;;;;5029029;28;20455;-81
2022/04/13 10:27:17;;;;;;;5.57;2.60;;;13.30;77.40;;;;;;5010532;28;20495;-79
2022/04/13 10:29:48;;;;;;;4.95;2.50;;;13.40;77.40;;;;;;5011480;28;20065;-81
2022/04/13 10:32:25;;;;;;;5.72;2.85;;;13.40;77.50;;;;;;5010896;28;20038;-80
2022/04/13 10:34:53;;;;;;;5.78;2.65;;;13.40;77.40;;;;;;5011201;28;20488;-81
2022/04/13 10:37:20;;;;;;;5.80;2.78;;;13.40;77.90;;;;;;5028544;28;20421;-79
2022/04/13 10:39:47;;;;;;;5.60;2.78;;;13.40;77.40;;;;;;5028488;28;20053;-80
2022/04/13 10:42:17;;;;;;;5.68;2.70;;;13.40;77.30;;;;;;5010663;28;20025;-83
2022/04/13 10:44:48;;;;;;;6.50;3.00;;;13.40;77.30;;;;;;5010143;28;20089;-80
2022/04/13 10:47:18;;;;;;;4.90;2.70;;;13.40;77.90;;;;;;5010290;28;20033;-78
2022/04/13 10:50:00;;;;;;;5.05;2.67;;;13.40;77.30;;;;;;5010782;28;20278;-79
2022/04/13 10:52:50;;;;;;;5.28;2.58;;;13.40;77.30;;;;;;5010387;28;20029;-80
2022/04/13 10:55:19;;;;;;;5.27;2.60;;;13.40;77.30;;;;;;5010537;28;20112;-81
2022/04/13 10:57:49;;;;;;;6.15;3.22;;;13.50;77.40;;;;;;5009954;28;20029;-79
2022/04/13 11:00:20;;;;;;;5.22;2.40;;;13.50;77.40;;;;;;5012597;28;20114;-78
2022/04/13 11:03:03;;;;;;;6.37;2.80;;;13.50;77.30;;;;;;5014325;28;20626;-79
2022/04/13 11:05:30;;;;;;;5.03;2.80;;;13.50;77.30;;;;;;5032388;28;20018;-81
2022/04/13 11:08:14;;;;;;;5.60;2.67;;;13.50;77.40;;;;;;5031693;28;20067;-79
2022/04/13 11:10:42;;;;;;;6.25;2.67;;;13.50;77.40;;;;;;5032102;28;20029;-81
2022/04/13 11:13:08;;;;;;;6.00;3.10;;;13.50;77.30;;;;;;5031642;28;20025;-79
2022/04/13 11:15:37;;;;;;;8.38;3.75;;;13.50;77.30;;;;;;5036062;28;20021;-81
2022/04/13 11:18:11;;;;;;;10.07;4.75;;;13.80;81.50;;;;;;5053557;28;20082;-81
2022/04/13 11:20:38;;;;;;;11.60;3.85;;;14.20;79.70;;;;;;5023606;28;20033;-81
2022/04/13 11:23:15;;;;;;;12.25;4.47;;;14.10;76.90;;;;;;5024542;28;20398;-80
2022/04/13 11:25:46;;;;;;;8.50;3.80;;;13.90;79.80;;;;;;5034602;28;20488;-80
2022/04/13 11:28:35;;;;;;;11.00;4.35;;;13.80;79.70;;;;;;5019371;28;20025;-80
2022/04/13 11:31:11;;;;;;;13.60;5.85;;;13.80;80.20;;;;;;5038351;28;20495;-79
2022/04/13 11:33:47;;;;;;;14.27;6.15;;;14.30;83.00;;;;;;5038991;28;20031;-81
2022/04/13 11:36:12;;;;;;;14.57;5.63;;;14.80;81.50;;;;;;5022859;28;20033;-79
2022/04/13 11:38:46;;;;;;;16.13;5.85;;;14.90;79.90;;;;;;5027671;28;20025;-82
2022/04/13 11:41:11;;;;;;;9.43;5.10;;;15.70;78.30;;;;;;5058842;28;20021;-81
2022/04/13 11:43:39;;;;;;;18.80;6.43;;;16.00;76.50;;;;;;5059678;28;20028;-80
2022/04/13 11:46:05;;;;;;;11.43;5.80;;;16.20;77.70;;;;;;5053134;28;20092;-76
2022/04/13 11:48:34;;;;;;;11.65;5.50;;;16.00;77.00;;;;;;5024240;28;20474;-82
2022/04/13 11:51:32;;;;;;;17.58;6.60;;;15.40;77.70;;;;;;5058991;28;20060;-81
2022/04/13 11:54:11;;;;;;;17.17;6.93;;;15.30;80.20;;;;;;5041359;28;20021;-78
2022/04/13 11:56:41;;;;;;;18.38;7.10;;;16.10;78.10;;;;;;5045845;28;21022;-79
2022/04/13 11:59:07;;;;;;;16.25;6.75;;;16.30;77.40;;;;;;5060948;28;20447;-79
2022/04/13 12:01:35;;;;;;;15.05;6.80;;;16.50;77.70;;;;;;5039478;28;20029;-81
2022/04/13 12:04:05;;;;;;;26.25;7.10;;;16.30;76.90;;;;;;5042835;28;20021;-79
2022/04/13 12:06:31;;;;;;;13.60;6.07;;;15.70;78.70;;;;;;5062574;28;20040;-78
2022/04/13 12:09:01;;;;;;;21.05;6.70;;;16.00;77.80;;;;;;5038016;28;20455;-81
2022/04/13 12:11:45;;;;;;;22.13;8.02;;;15.70;77.30;;;;;;5047374;28;20024;-80
2022/04/13 12:14:12;;;;;;;18.65;6.97;;;15.10;79.50;;;;;;5054408;28;20045;-79
2022/04/13 12:16:38;;;;;;;20.17;7.13;;;14.70;81.00;;;;;;5047588;28;20030;-80
2022/04/13 12:19:07;;;;;;;13.80;6.38;;;14.80;80.90;;;;;;5046724;28;20041;-80
2022/04/13 12:21:36;;;;;;;16.15;6.60;;;14.90;82.20;;;;;;5033128;28;20396;-80
2022/04/13 12:24:06;;;;;;;17.50;6.90;;;15.70;80.00;;;;;;5023103;28;20024;-80
2022/04/13 12:26:37;;;;;;;23.67;6.72;;;15.60;77.10;;;;;;5054787;28;20075;-78
2022/04/13 12:29:23;;;;;;;22.57;7.03;;;15.00;79.30;;;;;;5031858;28;20033;-79
2022/04/13 12:31:53;;;;;;;21.23;7.90;;;14.70;82.40;;;;;;5023419;28;20037;-79
2022/04/13 12:34:21;;;;;;;17.17;7.68;;;15.00;82.40;;;;;;5022226;28;20036;-77
2022/04/13 12:36:56;;;;;;;25.13;8.00;;;15.00;81.10;;;;;;5058758;28;20074;-80
2022/04/13 12:39:26;;;;;;;19.92;7.03;;;14.70;80.50;;;;;;5075686;28;20056;-79
2022/04/13 12:41:52;;;;;;;25.58;7.03;;;14.50;81.40;;;;;;5054988;28;20537;-79
2022/04/13 12:44:18;;;;;;;27.40;7.60;;;14.40;81.60;;;;;;5058146;28;20086;-80
2022/04/13 12:46:44;;;;;;;15.52;7.65;;;14.20;82.20;;;;;;5051356;28;20057;-80
2022/04/13 12:49:18;;;;;;;16.83;8.35;;;14.10;83.90;;;;;;5031321;28;20026;-80
2022/04/13 12:51:43;;;;;;;17.85;8.30;;;14.80;83.30;;;;;;5054395;28;20033;-80
2022/04/13 12:54:13;;;;;;;19.98;9.45;;;15.20;82.90;;;;;;5060120;28;20085;-80
2022/04/13 12:56:45;;;;;;;17.20;9.63;;;15.80;80.90;;;;;;5042396;28;20431;-80
2022/04/13 12:59:20;;;;;;;17.58;9.15;;;16.00;79.50;;;;;;5043046;28;20025;-80
2022/04/13 13:01:48;;;;;;;19.88;8.02;;;15.80;81.70;;;;;;5042983;28;20017;-78
2022/04/13 13:04:16;;;;;;;16.08;8.60;;;15.60;77.50;;;;;;5042556;28;20029;-81
2022/04/13 13:07:00;;;;;;;18.80;9.32;;;15.20;81.30;;;;;;5042049;28;20067;-81
2022/04/13 13:09:30;;;;;;;18.00;9.95;;;15.10;83.00;;;;;;5060564;28;20013;-80
2022/04/13 13:11:58;;;;;;;14.82;10.20;;;15.50;81.40;;;;;;5042419;28;20373;-81
2022/04/13 13:14:52;;;;;;;19.92;9.40;;;16.10;79.60;;;;;;5042098;28;20021;-80
2022/04/13 13:17:31;;;;;;;18.13;10.30;;;15.90;79.80;;;;;;5038997;28;20098;-81
2022/04/13 13:20:12;;;;;;;17.90;10.75;;;16.30;78.40;;;;;;5040518;28;20554;-80
2022/04/13 13:22:48;;;;;;;19.40;10.45;;;16.30;77.80;;;;;;5041023;28;20049;-80